Time;durP1;ratioP1;P1;durP2;ratioP2;P2;SDS_P1;SDS_P2;PMS_P1;PMS_P2;Temp;Humidity;BMP_temperature;BMP_pressure;BME280_temperature;BME280_humidity;BME280_pressure;Samples;Min_cycle;Max_cycle;Signal;HPM_P1;HPM_P2
2021/10/28 00:18:03;;;;;;;105.80;60.20;;;;;;;;;;4939040;29;20046;-86
2021/10/28 00:20:29;;;;;;;;;;;;;;;;;;4939104;29;20031;-86
2021/10/28 00:22:56;;;;;;;108.25;60.70;;;;;;;;;;4938866;29;19911;-87
2021/10/28 00:25:22;;;;;;;103.95;62.08;;;;;;;;;;4938775;29;20119;-87
2021/10/28 00:27:51;;;;;;;116.00;63.28;;;;;;;;;;4922792;29;20331;-87
2021/10/28 00:36:24;;;;;;;111.13;63.15;;;;;;;;;;4997263;28;20025;-87
2021/10/28 00:38:51;;;;;;;115.25;64.30;;;;;;;;;;5017603;28;20312;-87
2021/10/28 00:41:19;;;;;;;159.55;83.40;;;;;;;;;;5017985;28;20164;-87
2021/10/28 00:43:49;;;;;;;200.82;99.00;;;;;;;;;;5017496;28;20064;-86
2021/10/28 00:46:36;;;;;;;181.82;93.50;;;;;;;;;;5000443;28;20025;-86
2021/10/28 00:49:03;;;;;;;171.35;91.40;;;;;;;;;;5018014;28;20097;-86
2021/10/28 00:51:31;;;;;;;185.07;97.65;;;;;;;;;;5017602;28;20112;-87
2021/10/28 00:53:58;;;;;;;179.73;89.05;;;;;;;;;;5017665;28;20119;-86
2021/10/28 00:56:25;;;;;;;177.70;91.45;;;;;;;;;;5017552;28;20068;-89
2021/10/28 00:58:52;;;;;;;172.05;87.22;;;;;;;;;;5017939;28;20092;-88
2021/10/28 01:01:18;;;;;;;150.05;79.43;;;;;;;;;;5017405;28;20026;-88
2021/10/28 01:03:44;;;;;;;137.27;74.30;;;;;;;;;;5000295;28;20140;-88
2021/10/28 01:06:12;;;;;;;127.75;71.40;;;;;;;;;;5017742;28;20022;-88
2021/10/28 01:08:39;;;;;;;128.25;71.25;;;;;;;;;;5000225;28;20022;-88
2021/10/28 01:11:07;;;;;;;124.10;66.32;;;;;;;;;;5018011;28;20316;-88
2021/10/28 01:13:34;;;;;;;133.35;71.05;;;;;;;;;;5019988;28;20056;-85
2021/10/28 01:16:01;;;;;;;132.70;74.20;;;;;;;;;;5003924;28;20083;-85
2021/10/28 01:18:30;;;;;;;117.38;67.18;;;;;;;;;;5021466;28;20037;-86
2021/10/28 01:20:56;;;;;;;118.13;67.90;;;;;;;;;;5003879;28;20026;-85
2021/10/28 01:23:24;;;;;;;119.18;66.70;;;;;;;;;;5021219;28;20029;-86
2021/10/28 01:25:52;;;;;;;119.68;66.25;;;;;;;;;;5021090;28;20024;-85
2021/10/28 01:28:19;;;;;;;117.80;67.35;;;;;;;;;;5020836;28;20477;-85
2021/10/28 01:30:49;;;;;;;115.80;67.13;;;;;;;;;;5020983;28;20117;-85
2021/10/28 01:33:16;;;;;;;111.18;64.00;;;;;;;;;;5003237;28;20328;-84
2021/10/28 01:35:42;;;;;;;112.80;64.50;;;;;;;;;;5020771;28;20503;-85
2021/10/28 01:38:10;;;;;;;110.95;63.17;;;;;;;;;;5021091;28;20040;-87
2021/10/28 01:40:37;;;;;;;100.35;59.72;;;;;;;;;;5020994;28;20463;-87
2021/10/28 01:43:03;;;;;;;101.25;60.30;;;;;;;;;;5020704;28;20121;-86
2021/10/28 01:45:29;;;;;;;94.78;56.65;;;;;;;;;;5020686;28;20034;-85
2021/10/28 01:47:55;;;;;;;102.82;57.70;;;;;;;;;;5003334;28;20026;-87
2021/10/28 01:50:21;;;;;;;99.00;54.78;;;;;;;;;;5020588;28;20041;-88
2021/10/28 01:52:47;;;;;;;89.25;53.33;;;;;;;;;;5003126;28;20352;-88
2021/10/28 01:55:14;;;;;;;87.07;51.55;;;;;;;;;;5003365;28;20418;-86
2021/10/28 01:57:40;;;;;;;87.15;53.15;;;;;;;;;;5020525;28;20026;-85
2021/10/28 02:00:17;;;;;;;85.18;51.42;;;;;;;;;;5020291;28;20030;-85
2021/10/28 02:02:45;;;;;;;81.32;51.33;;;;;;;;;;5020164;28;20029;-85
2021/10/28 02:05:11;;;;;;;74.80;48.03;;;;;;;;;;5020189;28;20060;-85
2021/10/28 02:07:38;;;;;;;77.60;48.00;;;;;;;;;;5019960;28;20096;-85
2021/10/28 02:10:05;;;;;;;81.70;49.70;;;;;;;;;;5002935;28;20022;-86
2021/10/28 02:12:32;;;;;;;83.72;49.47;;;;;;;;;;5020164;28;20026;-86
2021/10/28 02:15:18;;;;;;;89.53;51.20;;;;;;;;;;5020410;28;20022;-85
2021/10/28 02:17:44;;;;;;;79.70;48.80;;;;;;;;;;5002749;28;20029;-85
2021/10/28 02:20:12;;;;;;;77.32;47.70;;;;;;;;;;5002770;28;20022;-86
2021/10/28 02:22:38;;;;;;;78.03;47.05;;;;;;;;;;5019930;28;20432;-86
2021/10/28 02:25:05;;;;;;;75.65;46.58;;;;;;;;;;5002247;28;20034;-86
2021/10/28 02:27:32;;;;;;;69.85;45.05;;;;;;;;;;5002465;28;20412;-86
2021/10/28 02:33:02;;;;;;;72.35;45.88;;;;;;;;;;5019977;28;20029;-86
2021/10/28 02:35:28;;;;;;;63.65;42.28;;;;;;;;;;5002558;28;20485;-86
2021/10/28 02:37:54;;;;;;;59.47;40.92;;;;;;;;;;5002019;28;20335;-86
2021/10/28 02:40:20;;;;;;;61.88;41.28;;;;;;;;;;5019853;28;20034;-86
2021/10/28 02:42:46;;;;;;;63.95;42.20;;;;;;;;;;5019594;28;20037;-86
2021/10/28 02:48:16;;;;;;;60.97;38.78;;;;;;;;;;5019638;28;20036;-87
2021/10/28 02:50:46;;;;;;;56.72;39.47;;;;;;;;;;5019771;28;20022;-90
2021/10/28 02:53:12;;;;;;;56.95;38.88;;;;;;;;;;5019793;28;20026;-88
2021/10/28 02:55:38;;;;;;;51.85;37.42;;;;;;;;;;5002335;28;20351;-88
2021/10/28 02:58:04;;;;;;;58.42;39.20;;;;;;;;;;5002080;28;20058;-87
2021/10/28 03:03:35;;;;;;;49.25;34.65;;;;;;;;;;5019388;28;20041;-86
2021/10/28 03:06:01;;;;;;;49.97;34.42;;;;;;;;;;5001886;28;20048;-86
2021/10/28 03:08:29;;;;;;;51.92;36.03;;;;;;;;;;5019290;28;20041;-86
2021/10/28 03:10:55;;;;;;;53.88;36.97;;;;;;;;;;5019372;28;20412;-86
2021/10/28 03:13:21;;;;;;;58.58;39.67;;;;;;;;;;5019377;28;20094;-86
2021/10/28 03:15:49;;;;;;;57.15;38.92;;;;;;;;;;5019330;28;20022;-83
2021/10/28 03:26:32;;;;;;;57.60;39.33;;;;;;;;;;5019047;28;20037;-85
2021/10/28 03:28:58;;;;;;;60.17;41.65;;;;;;;;;;5001049;28;20045;-86
2021/10/28 03:31:24;;;;;;;62.42;41.20;;;;;;;;;;5018970;28;20033;-86
2021/10/28 03:33:51;;;;;;;62.15;40.08;;;;;;;;;;5001394;28;20033;-85
2021/10/28 03:36:30;;;;;;;71.07;42.92;;;;;;;;;;5018327;28;20028;-86
2021/10/28 03:39:10;;;;;;;69.75;41.10;;;;;;;;;;5000979;28;20033;-86
2021/10/28 03:52:59;;;;;;;67.65;45.13;;;;;;;;;;5018737;28;20037;-88
2021/10/28 04:33:18;;;;;;;119.30;74.03;;;;;;;;;;4957933;29;20322;-85
2021/10/28 04:35:44;;;;;;;135.43;80.55;;;;;;;;;;4957815;29;20119;-86
2021/10/28 04:38:11;;;;;;;138.85;81.55;;;;;;;;;;4957589;29;20032;-87
2021/10/28 04:40:37;;;;;;;144.93;85.60;;;;;;;;;;4957820;29;20039;-86
2021/10/28 04:43:03;;;;;;;147.15;85.70;;;;;;;;;;4957747;29;20043;-86
2021/10/28 04:45:29;;;;;;;144.30;83.70;;;;;;;;;;4957820;29;20031;-85
2021/10/28 04:47:56;;;;;;;143.90;82.32;;;;;;;;;;4985243;28;20026;-85
2021/10/28 04:50:22;;;;;;;146.50;85.20;;;;;;;;;;5021311;28;20408;-85
2021/10/28 04:52:48;;;;;;;149.00;85.95;;;;;;;;;;5021611;28;20153;-85
2021/10/28 04:55:14;;;;;;;151.02;84.85;;;;;;;;;;5003800;28;20100;-85
2021/10/28 04:57:40;;;;;;;138.40;79.10;;;;;;;;;;5004004;28;20030;-85
2021/10/28 05:00:06;;;;;;;131.52;78.63;;;;;;;;;;5021512;28;20050;-83
2021/10/28 05:02:33;;;;;;;127.10;75.63;;;;;;;;;;5039375;28;20021;-84
2021/10/28 05:04:59;;;;;;;128.13;78.00;;;;;;;;;;5023722;28;20312;-85
2021/10/28 05:07:25;;;;;;;130.23;73.35;;;;;;;;;;5023482;28;20033;-85
2021/10/28 05:09:52;;;;;;;113.20;67.82;;;;;;;;;;5041075;28;20025;-87
2021/10/28 05:12:18;;;;;;;111.35;67.22;;;;;;;;;;5022874;28;20021;-83
2021/10/28 05:14:44;;;;;;;114.43;69.18;;;;;;;;;;5040826;28;20032;-87
2021/10/28 05:17:22;;;;;;;111.43;68.65;;;;;;;;;;5041206;28;20024;-83
2021/10/28 05:19:48;;;;;;;116.72;70.60;;;;;;;;;;5023202;28;20059;-85
2021/10/28 05:22:15;;;;;;;113.50;67.45;;;;;;;;;;5022977;28;20041;-83
2021/10/28 05:24:41;;;;;;;103.43;65.07;;;;;;;;;;5023292;28;20033;-85
2021/10/28 05:27:07;;;;;;;112.57;64.00;;;;;;;;;;5040895;28;20359;-85
2021/10/28 05:29:33;;;;;;;96.63;60.30;;;;;;;;;;5022686;28;20053;-84
2021/10/28 05:32:14;;;;;;;93.85;58.08;;;;;;;;;;5017882;28;20050;-85
2021/10/28 05:34:41;;;;;;;81.03;50.00;;;;;;;;;;5038192;28;20079;-83
2021/10/28 05:37:07;;;;;;;79.10;47.65;;;;;;;;;;5040320;28;20029;-85
2021/10/28 05:39:33;;;;;;;78.82;46.28;;;;;;;;;;5040393;28;20021;-83
2021/10/28 05:41:59;;;;;;;93.03;48.35;;;;;;;;;;5032446;28;20054;-91
2021/10/28 05:44:25;;;;;;;73.55;45.97;;;;;;;;;;5004794;28;20042;-86
2021/10/28 05:46:51;;;;;;;73.70;47.30;;;;;;;;;;5020702;28;20026;-85
2021/10/28 05:49:17;;;;;;;76.47;48.45;;;;;;;;;;5020370;28;20022;-85
2021/10/28 05:51:46;;;;;;;83.65;48.55;;;;;;;;;;5020495;28;20026;-84
2021/10/28 05:54:12;;;;;;;83.85;47.20;;;;;;;;;;5002408;28;20110;-84
2021/10/28 05:56:38;;;;;;;78.28;48.38;;;;;;;;;;5002230;28;20042;-85
2021/10/28 05:59:04;;;;;;;81.72;50.63;;;;;;;;;;5019822;28;20037;-84
2021/10/28 06:01:49;;;;;;;81.88;50.10;;;;;;;;;;5002643;28;20077;-85
2021/10/28 06:04:15;;;;;;;76.10;47.60;;;;;;;;;;5019782;28;20037;-84
2021/10/28 06:06:41;;;;;;;77.60;45.83;;;;;;;;;;5002526;28;20328;-84
2021/10/28 06:09:07;;;;;;;82.07;46.88;;;;;;;;;;5020072;28;20032;-84
2021/10/28 06:11:33;;;;;;;79.35;47.35;;;;;;;;;;5002620;28;20026;-84
2021/10/28 06:13:59;;;;;;;96.97;55.65;;;;;;;;;;5020005;28;20034;-85
2021/10/28 06:16:27;;;;;;;111.95;60.88;;;;;;;;;;5020280;28;20025;-85
2021/10/28 06:18:53;;;;;;;105.25;58.58;;;;;;;;;;5019827;28;20061;-85
2021/10/28 06:21:24;;;;;;;82.38;49.58;;;;;;;;;;5019800;28;20030;-85
2021/10/28 06:23:50;;;;;;;87.53;53.90;;;;;;;;;;5019717;28;20022;-84
2021/10/28 06:26:18;;;;;;;86.80;51.70;;;;;;;;;;5019787;28;20480;-85
2021/10/28 06:28:44;;;;;;;95.80;53.97;;;;;;;;;;5019893;28;20109;-86
2021/10/28 06:31:13;;;;;;;80.90;50.67;;;;;;;;;;5019833;28;20022;-84
2021/10/28 06:33:47;;;;;;;84.13;51.63;;;;;;;;;;5002009;28;20405;-85
2021/10/28 06:36:13;;;;;;;88.50;50.92;;;;;;;;;;5019733;28;20448;-85
2021/10/28 06:38:40;;;;;;;110.10;58.10;;;;;;;;;;5019380;28;20052;-84
2021/10/28 06:41:06;;;;;;;140.77;66.03;;;;;;;;;;5002333;28;20052;-85
2021/10/28 06:43:32;;;;;;;125.60;65.40;;;;;;;;;;5019320;28;20038;-85
2021/10/28 06:46:26;;;;;;;109.45;58.38;;;;;;;;;;5019560;28;20106;-85
2021/10/28 06:48:52;;;;;;;79.00;49.90;;;;;;;;;;5002274;28;20025;-84
2021/10/28 06:51:19;;;;;;;76.30;47.42;;;;;;;;;;5019595;28;20058;-85
2021/10/28 06:53:57;;;;;;;96.20;53.83;;;;;;;;;;5019574;28;20029;-85
2021/10/28 07:04:37;;;;;;;83.82;49.05;;;;;;;;;;5019021;28;20044;-83
2021/10/28 07:07:03;;;;;;;75.35;47.17;;;;;;;;;;5019215;28;20401;-83
2021/10/28 07:09:34;;;;;;;73.75;47.40;;;;;;;;;;5018520;28;20045;-83
2021/10/28 07:14:49;;;;;;;78.05;47.97;;;;;;;;;;5019159;28;20088;-83
2021/10/28 07:20:17;;;;;;;87.25;48.60;;;;;;;;;;5018557;28;20026;-83
2021/10/28 07:25:50;;;;;;;76.95;47.67;;;;;;;;;;5018487;28;20048;-83
2021/10/28 07:34:04;;;;;;;79.35;50.13;;;;;;;;;;4939144;29;20044;-83
2021/10/28 07:38:21;;;;;;;75.88;48.03;;;;;;;;;;4923117;29;20128;-83
2021/10/28 07:58:44;;;;;;;76.70;46.92;;;;;;;;;;4938808;29;20047;-82
2021/10/28 08:20:06;;;;;;;67.97;44.28;;;;;;;;;;5017629;28;20053;-87
2021/10/28 08:22:40;;;;;;;72.60;45.58;;;;;;;;;;5017620;28;20017;-85
2021/10/28 08:30:37;;;;;;;69.55;42.88;;;;;;;;;;5018250;28;20033;-86
2021/10/28 08:33:40;;;;;;;57.22;39.05;;;;;;;;;;5018132;28;20030;-86
2021/10/28 08:36:11;;;;;;;66.03;42.22;;;;;;;;;;5017795;28;20026;-86
2021/10/28 08:38:37;;;;;;;62.72;41.15;;;;;;;;;;5017640;28;20025;-86
2021/10/28 08:41:05;;;;;;;67.35;41.58;;;;;;;;;;5000583;28;20050;-86
2021/10/28 08:43:31;;;;;;;63.00;40.95;;;;;;;;;;5017734;28;20037;-85
2021/10/28 08:45:58;;;;;;;68.53;43.25;;;;;;;;;;5000358;28;20087;-85
2021/10/28 08:48:26;;;;;;;68.57;42.95;;;;;;;;;;5017868;28;20041;-86
2021/10/28 08:51:04;;;;;;;67.25;43.63;;;;;;;;;;5000240;28;20156;-85
2021/10/28 09:19:43;;;;;;;67.30;42.70;;;;;;;;;;4919400;29;20039;-85
2021/10/28 09:25:07;;;;;;;66.80;42.72;;;;;;;;;;4919302;29;20043;-84
2021/10/28 09:27:47;;;;;;;62.17;40.35;;;;;;;;;;4918654;29;20112;-84
2021/10/28 09:30:30;;;;;;;63.42;40.95;;;;;;;;;;4902497;29;20045;-85
2021/10/28 09:33:35;;;;;;;72.15;40.40;;;;;;;;;;4903255;29;20085;-84
2021/10/28 09:36:19;;;;;;;67.60;41.50;;;;;;;;;;4906996;29;20040;-85
2021/10/28 09:48:02;;;;;;;61.97;41.25;;;;;;;;;;4921648;29;20050;-75
2021/10/28 09:50:37;;;;;;;63.17;41.55;;;;;;;;;;4921626;29;20068;-75
2021/10/28 09:53:11;;;;;;;69.82;43.55;;;;;;;;;;4921595;29;20115;-75
2021/10/28 09:58:24;;;;;;;69.85;42.25;;;;;;;;;;5019846;28;20026;-81
2021/10/28 10:00:50;;;;;;;57.38;37.08;;;;;;;;;;5002284;28;20046;-81
2021/10/28 10:03:25;;;;;;;53.53;36.95;;;;;;;;;;5002529;28;20053;-80
2021/10/28 10:05:56;;;;;;;52.53;34.70;;;;;;;;;;5019857;28;20033;-81
2021/10/28 10:08:24;;;;;;;48.95;33.30;;;;;;;;;;5020142;28;20018;-81
2021/10/28 10:10:50;;;;;;;50.03;33.05;;;;;;;;;;5020035;28;20125;-81
2021/10/28 10:13:16;;;;;;;48.42;31.13;;;;;;;;;;5019750;28;20022;-81
2021/10/28 10:15:43;;;;;;;45.42;31.52;;;;;;;;;;5002376;28;20058;-81
2021/10/28 10:18:13;;;;;;;47.85;32.85;;;;;;;;;;5019137;28;20029;-80
2021/10/28 10:20:47;;;;;;;45.55;31.33;;;;;;;;;;5019511;28;20379;-81
2021/10/28 11:23:21;;;;;;;68.90;34.33;;;;;;;;;;5018267;28;20030;-80
2021/10/28 12:24:20;;;;;;;39.75;23.80;;;;;;;;;;4938239;29;20042;-81
2021/10/28 12:46:00;;;;;;;29.67;19.02;;;;;;;;;;5017482;28;20360;-81
2021/10/28 12:51:19;;;;;;;32.78;19.77;;;;;;;;;;5017420;28;19953;-81
2021/10/28 13:27:53;;;;;;;36.42;22.20;;;;;;;;;;5017329;28;20026;-80
2021/10/28 13:49:16;;;;;;;46.20;29.02;;;;;;;;;;5020244;28;20075;-81
2021/10/28 13:51:45;;;;;;;46.80;29.27;;;;;;;;;;5016189;28;20034;-81
2021/10/28 15:01:26;;;;;;;39.42;27.30;;;;;;;;;;4940198;29;20074;-80
2021/10/28 15:36:19;;;;;;;;;;;;;;;;;;5038433;28;20026;-81
2021/10/28 15:54:34;;;;;;;146.90;70.40;;;;;;;;;;5037700;28;19911;-80
2021/10/28 16:24:03;;;;;;;78.68;46.85;;;;;;;;;;5037114;28;20087;-80
2021/10/28 16:26:33;;;;;;;69.70;44.08;;;;;;;;;;5036915;28;20036;-80
2021/10/28 16:28:59;;;;;;;81.50;46.75;;;;;;;;;;5037339;28;20021;-80
2021/10/28 16:31:26;;;;;;;114.93;59.13;;;;;;;;;;5037229;28;20033;-80
2021/10/28 16:33:52;;;;;;;117.25;57.10;;;;;;;;;;5036891;28;20025;-81
2021/10/28 16:36:21;;;;;;;135.75;64.03;;;;;;;;;;5019539;28;20356;-80
2021/10/28 16:38:49;;;;;;;149.80;66.45;;;;;;;;;;5002906;28;20309;-80
2021/10/28 16:41:15;;;;;;;195.98;82.85;;;;;;;;;;5036913;28;20415;-80
2021/10/28 16:43:41;;;;;;;218.88;89.30;;;;;;;;;;5019228;28;20424;-80
2021/10/28 16:46:08;;;;;;;226.43;92.95;;;;;;;;;;5036912;28;20335;-80
2021/10/28 16:48:35;;;;;;;287.63;107.72;;;;;;;;;;5036772;28;20053;-80
2021/10/28 16:51:02;;;;;;;350.70;129.88;;;;;;;;;;5036487;28;20340;-80
2021/10/28 16:53:28;;;;;;;403.88;154.52;;;;;;;;;;5019431;28;20076;-80
2021/10/28 16:55:54;;;;;;;423.08;163.57;;;;;;;;;;5036497;28;20029;-80
2021/10/28 16:58:20;;;;;;;526.22;243.90;;;;;;;;;;5019188;28;20033;-80
2021/10/28 17:00:50;;;;;;;526.50;249.50;;;;;;;;;;5036891;28;20044;-80
2021/10/28 17:03:16;;;;;;;540.25;263.50;;;;;;;;;;5036704;28;20032;-80
2021/10/28 17:05:42;;;;;;;529.55;249.45;;;;;;;;;;5036893;28;20026;-80
2021/10/28 17:08:09;;;;;;;541.42;253.98;;;;;;;;;;5036674;28;20028;-80
2021/10/28 17:10:35;;;;;;;493.02;238.23;;;;;;;;;;5036790;28;20036;-80
2021/10/28 17:13:01;;;;;;;541.03;267.50;;;;;;;;;;5036859;28;20024;-80
2021/10/28 17:15:27;;;;;;;503.65;244.88;;;;;;;;;;5036484;28;20029;-80
2021/10/28 17:17:53;;;;;;;524.75;264.20;;;;;;;;;;5018751;28;20034;-80
2021/10/28 17:20:20;;;;;;;602.10;292.80;;;;;;;;;;5019059;28;20033;-80
2021/10/28 17:22:47;;;;;;;655.42;302.33;;;;;;;;;;5018916;28;20072;-80
2021/10/28 17:25:18;;;;;;;696.10;316.55;;;;;;;;;;5036624;28;20030;-80
2021/10/28 17:27:45;;;;;;;743.30;327.63;;;;;;;;;;5036817;28;20093;-80
2021/10/28 17:30:12;;;;;;;763.72;337.88;;;;;;;;;;5036950;28;20030;-80
2021/10/28 17:32:40;;;;;;;785.42;345.50;;;;;;;;;;5036195;28;20358;-80
2021/10/28 17:35:07;;;;;;;755.55;340.02;;;;;;;;;;5018892;28;20033;-80
2021/10/28 17:37:33;;;;;;;729.45;324.80;;;;;;;;;;5036415;28;20124;-80
2021/10/28 17:39:59;;;;;;;657.10;301.70;;;;;;;;;;5018534;28;20021;-80
2021/10/28 17:42:25;;;;;;;652.88;296.05;;;;;;;;;;5036162;28;20041;-80
2021/10/28 17:44:57;;;;;;;579.20;266.83;;;;;;;;;;5018813;28;20532;-79
2021/10/28 17:47:23;;;;;;;555.65;253.43;;;;;;;;;;5036039;28;20028;-80
2021/10/28 17:49:50;;;;;;;530.22;239.38;;;;;;;;;;5018586;28;20112;-80
2021/10/28 17:52:17;;;;;;;511.23;231.13;;;;;;;;;;5018581;28;20033;-79
2021/10/28 17:54:43;;;;;;;500.30;220.18;;;;;;;;;;5031142;28;20050;-80
2021/10/28 17:57:10;;;;;;;460.40;206.55;;;;;;;;;;5019935;28;20038;-80
2021/10/28 17:59:36;;;;;;;449.48;189.90;;;;;;;;;;5019886;28;20037;-80
2021/10/28 18:02:03;;;;;;;411.88;177.60;;;;;;;;;;5020019;28;20026;-80
2021/10/28 18:04:29;;;;;;;383.08;164.80;;;;;;;;;;5021460;28;20037;-79
2021/10/28 18:06:55;;;;;;;376.08;165.90;;;;;;;;;;5033394;28;20025;-80
2021/10/28 18:09:24;;;;;;;363.92;160.43;;;;;;;;;;5024502;28;20053;-80
2021/10/28 18:11:54;;;;;;;366.70;161.00;;;;;;;;;;5019762;28;20026;-80
2021/10/28 18:14:22;;;;;;;370.08;156.40;;;;;;;;;;5019679;28;20034;-80
2021/10/28 18:16:48;;;;;;;343.17;153.05;;;;;;;;;;5019561;28;20049;-80
2021/10/28 18:19:14;;;;;;;327.20;146.45;;;;;;;;;;5019477;28;20021;-80
2021/10/28 18:21:42;;;;;;;314.83;143.73;;;;;;;;;;5001905;28;20038;-80
2021/10/28 18:24:09;;;;;;;308.58;140.50;;;;;;;;;;5019673;28;20041;-80
2021/10/28 18:26:35;;;;;;;299.50;137.55;;;;;;;;;;5002143;28;20033;-80
2021/10/28 18:29:02;;;;;;;297.75;136.07;;;;;;;;;;5019421;28;20026;-80
2021/10/28 18:31:28;;;;;;;278.00;129.30;;;;;;;;;;5019203;28;20018;-80
2021/10/28 18:33:55;;;;;;;258.15;120.75;;;;;;;;;;5001996;28;20096;-78
2021/10/28 18:36:22;;;;;;;234.38;112.63;;;;;;;;;;5019320;28;20026;-78
2021/10/28 18:38:49;;;;;;;233.20;111.40;;;;;;;;;;5001844;28;20108;-77
2021/10/28 18:41:19;;;;;;;219.88;110.68;;;;;;;;;;5001803;28;20030;-79
2021/10/28 18:43:46;;;;;;;217.23;105.68;;;;;;;;;;5019221;28;20045;-80
2021/10/28 18:46:12;;;;;;;192.27;96.35;;;;;;;;;;5018888;28;20034;-80
2021/10/28 18:48:38;;;;;;;181.68;90.93;;;;;;;;;;5018923;28;20034;-81
2021/10/28 18:51:05;;;;;;;180.73;91.28;;;;;;;;;;5019314;28;20029;-80
2021/10/28 18:53:38;;;;;;;163.90;82.57;;;;;;;;;;5019060;28;20061;-80
2021/10/28 18:56:04;;;;;;;159.32;79.53;;;;;;;;;;5018710;28;20026;-81
2021/10/28 18:58:30;;;;;;;161.13;80.45;;;;;;;;;;5018530;28;20026;-80
2021/10/28 19:00:56;;;;;;;162.82;85.22;;;;;;;;;;5001061;28;20038;-78
2021/10/28 19:03:23;;;;;;;182.20;91.88;;;;;;;;;;5001303;28;20328;-78
2021/10/28 19:05:52;;;;;;;206.60;102.32;;;;;;;;;;5017520;28;20105;-78
2021/10/28 19:08:19;;;;;;;246.65;112.35;;;;;;;;;;5018489;28;20022;-79
2021/10/28 19:10:45;;;;;;;259.80;111.45;;;;;;;;;;5018630;28;20034;-79
2021/10/28 19:13:11;;;;;;;244.68;103.88;;;;;;;;;;5018660;28;20022;-80
2021/10/28 19:15:38;;;;;;;228.18;97.90;;;;;;;;;;5018492;28;20022;-79
2021/10/28 19:18:06;;;;;;;261.10;102.00;;;;;;;;;;5000979;28;20040;-81
2021/10/28 19:20:32;;;;;;;265.45;101.82;;;;;;;;;;5018376;28;20029;-81
2021/10/28 19:22:58;;;;;;;261.95;98.55;;;;;;;;;;5003379;28;20029;-82
2021/10/28 19:25:24;;;;;;;245.43;92.97;;;;;;;;;;5020187;28;20045;-83
2021/10/28 19:27:54;;;;;;;213.15;82.03;;;;;;;;;;5018420;28;20061;-79
2021/10/28 19:32:47;;;;;;;149.68;70.82;;;;;;;;;;5037469;28;20030;-81
2021/10/28 19:35:13;;;;;;;148.57;66.78;;;;;;;;;;5037901;28;20415;-82
2021/10/28 19:37:45;;;;;;;137.07;65.60;;;;;;;;;;5037410;28;20108;-81
2021/10/28 19:40:26;;;;;;;;;;;;;;;;;;5037939;28;20018;-82
2021/10/28 19:48:12;;;;;;;122.07;60.40;;;;;;;;;;5037346;28;20087;-82
2021/10/28 19:50:38;;;;;;;113.07;58.47;;;;;;;;;;5037265;28;20032;-82
2021/10/28 19:53:04;;;;;;;124.20;58.80;;;;;;;;;;5020069;28;20069;-82
2021/10/28 19:55:31;;;;;;;123.05;57.53;;;;;;;;;;5037255;28;20319;-82
2021/10/28 19:57:57;;;;;;;130.07;59.85;;;;;;;;;;5036412;28;20116;-81
2021/10/28 20:05:28;;;;;;;138.00;62.63;;;;;;;;;;5023035;28;20409;-81
2021/10/28 20:21:34;;;;;;;258.90;88.10;;;;;;;;;;4976686;28;20472;-81
2021/10/28 20:24:00;;;;;;;244.65;86.30;;;;;;;;;;4978730;28;20037;-81
2021/10/28 20:26:27;;;;;;;240.60;83.18;;;;;;;;;;4976331;28;20561;-81
2021/10/28 20:28:54;;;;;;;209.45;75.00;;;;;;;;;;4976630;28;20349;-81
2021/10/28 20:31:22;;;;;;;187.68;72.45;;;;;;;;;;4981600;28;20034;-81
2021/10/28 20:34:04;;;;;;;189.48;69.82;;;;;;;;;;4977560;28;20031;-81
2021/10/28 20:38:58;;;;;;;253.48;84.93;;;;;;;;;;4977061;28;20134;-82
2021/10/28 20:41:24;;;;;;;255.35;86.40;;;;;;;;;;4976357;28;20030;-81
2021/10/28 20:43:51;;;;;;;238.98;82.70;;;;;;;;;;4960075;28;20397;-82
2021/10/28 20:46:21;;;;;;;265.52;84.70;;;;;;;;;;4960011;28;20034;-82
2021/10/28 20:48:48;;;;;;;245.20;77.00;;;;;;;;;;4976391;28;20046;-81
2021/10/28 20:51:15;;;;;;;201.77;75.25;;;;;;;;;;4959802;28;20035;-81
2021/10/28 20:53:41;;;;;;;207.35;72.00;;;;;;;;;;4976251;28;20023;-82
2021/10/28 20:56:08;;;;;;;176.15;66.97;;;;;;;;;;4962810;28;20030;-82
2021/10/28 20:58:35;;;;;;;187.38;69.60;;;;;;;;;;5017266;28;20058;-82
2021/10/28 21:01:01;;;;;;;190.20;67.93;;;;;;;;;;5017202;28;20029;-83
2021/10/28 21:03:27;;;;;;;165.77;65.93;;;;;;;;;;5017189;28;20028;-83
2021/10/28 21:05:54;;;;;;;147.70;60.95;;;;;;;;;;5017072;28;20030;-83
2021/10/28 21:08:20;;;;;;;141.55;60.08;;;;;;;;;;4999254;28;20026;-82
2021/10/28 21:10:46;;;;;;;148.77;63.28;;;;;;;;;;5017257;28;20029;-83
2021/10/28 21:13:12;;;;;;;141.90;59.58;;;;;;;;;;5016974;28;20022;-82
2021/10/28 21:15:38;;;;;;;128.93;56.47;;;;;;;;;;5016998;28;20053;-83
2021/10/28 21:18:06;;;;;;;135.65;57.08;;;;;;;;;;5016580;28;20026;-82
2021/10/28 21:20:32;;;;;;;143.27;59.25;;;;;;;;;;4999836;28;20034;-82
2021/10/28 21:23:00;;;;;;;128.88;56.28;;;;;;;;;;4999284;28;20038;-83
2021/10/28 21:25:26;;;;;;;120.05;53.15;;;;;;;;;;5016822;28;20030;-83
2021/10/28 21:27:52;;;;;;;116.53;52.63;;;;;;;;;;5016820;28;20018;-82
2021/10/28 21:30:19;;;;;;;120.30;54.17;;;;;;;;;;5018899;28;20454;-83
2021/10/28 21:32:46;;;;;;;106.07;51.92;;;;;;;;;;5020492;28;20034;-82
2021/10/28 21:35:12;;;;;;;105.85;50.42;;;;;;;;;;5020374;28;20026;-82
2021/10/28 21:37:39;;;;;;;106.32;50.00;;;;;;;;;;5020362;28;20022;-82
2021/10/28 21:40:07;;;;;;;109.80;50.88;;;;;;;;;;5003064;28;20332;-82
2021/10/28 21:42:33;;;;;;;108.63;49.50;;;;;;;;;;5002971;28;20034;-82
2021/10/28 21:44:59;;;;;;;92.15;44.00;;;;;;;;;;5020324;28;20033;-82
2021/10/28 21:47:26;;;;;;;87.00;46.00;;;;;;;;;;5020136;28;20049;-82
2021/10/28 21:49:53;;;;;;;87.38;42.42;;;;;;;;;;5003081;28;20022;-83
2021/10/28 21:52:27;;;;;;;90.50;45.10;;;;;;;;;;5020313;28;20436;-83
2021/10/28 22:03:15;;;;;;;81.95;43.72;;;;;;;;;;4959999;28;20334;-83
2021/10/28 22:27:05;;;;;;;67.85;38.03;;;;;;;;;;4959533;28;20028;-83
2021/10/28 22:29:31;;;;;;;60.60;37.38;;;;;;;;;;4943412;29;20031;-84
2021/10/28 22:31:57;;;;;;;60.42;37.05;;;;;;;;;;4959556;28;20209;-83
2021/10/28 22:34:23;;;;;;;60.67;37.90;;;;;;;;;;4959682;28;20038;-84
2021/10/28 22:36:54;;;;;;;59.20;37.05;;;;;;;;;;4959423;29;20210;-83
2021/10/28 22:39:33;;;;;;;60.63;35.60;;;;;;;;;;4972916;28;20034;-84
2021/10/28 22:41:59;;;;;;;57.05;35.33;;;;;;;;;;5001904;28;20032;-84
2021/10/28 22:44:25;;;;;;;65.28;37.80;;;;;;;;;;5019143;28;20435;-83
2021/10/28 22:46:51;;;;;;;60.08;35.97;;;;;;;;;;5019566;28;20404;-84
2021/10/28 22:49:18;;;;;;;68.75;36.58;;;;;;;;;;5001993;28;20408;-84
2021/10/28 22:51:44;;;;;;;64.03;35.97;;;;;;;;;;5019466;28;20325;-84
2021/10/28 22:54:11;;;;;;;60.20;35.17;;;;;;;;;;5001886;28;20022;-82
2021/10/28 22:56:37;;;;;;;59.92;35.42;;;;;;;;;;5019148;28;20025;-83
2021/10/28 22:59:05;;;;;;;69.88;36.38;;;;;;;;;;5001721;28;20030;-83
2021/10/28 23:01:40;;;;;;;63.25;36.55;;;;;;;;;;5019046;28;20105;-84
2021/10/28 23:07:28;;;;;;;61.83;37.58;;;;;;;;;;5019446;28;20026;-85
2021/10/28 23:15:04;;;;;;;67.93;37.22;;;;;;;;;;5019219;28;20040;-84
2021/10/28 23:22:59;;;;;;;64.85;37.53;;;;;;;;;;5019271;28;20311;-83
2021/10/28 23:25:26;;;;;;;62.70;37.67;;;;;;;;;;5018155;28;20072;-83
2021/10/28 23:27:52;;;;;;;59.67;36.90;;;;;;;;;;5018848;28;20026;-83
2021/10/28 23:30:18;;;;;;;63.67;38.72;;;;;;;;;;5018889;28;20033;-84
2021/10/28 23:32:44;;;;;;;62.22;37.63;;;;;;;;;;5018519;28;20103;-83
2021/10/28 23:35:10;;;;;;;63.42;37.42;;;;;;;;;;5000802;28;20030;-83
2021/10/28 23:37:37;;;;;;;64.93;38.08;;;;;;;;;;5018347;28;20336;-83
2021/10/28 23:40:03;;;;;;;60.95;37.92;;;;;;;;;;5018553;28;20034;-83
2021/10/28 23:42:30;;;;;;;60.85;37.08;;;;;;;;;;5017658;28;20034;-83
2021/10/28 23:44:56;;;;;;;65.35;38.75;;;;;;;;;;5018316;28;20105;-85
2021/10/28 23:47:22;;;;;;;61.33;37.35;;;;;;;;;;5001222;28;20037;-85
2021/10/28 23:49:48;;;;;;;62.63;37.15;;;;;;;;;;5018557;28;20026;-86
2021/10/28 23:52:14;;;;;;;60.47;35.58;;;;;;;;;;5000520;28;20029;-86
2021/10/28 23:54:41;;;;;;;60.47;35.35;;;;;;;;;;5001276;28;20026;-86
2021/10/28 23:57:07;;;;;;;54.60;34.53;;;;;;;;;;5018517;28;20155;-83
2021/10/28 23:59:33;;;;;;;52.00;32.83;;;;;;;;;;5018362;28;20037;-83
